createdAt,value
2023-01-22T00:00:06.691Z,9.15
2023-01-22T00:02:39.299Z,11.38
2023-01-22T00:05:07.011Z,11.45
2023-01-22T00:07:34.211Z,11.63
2023-01-22T00:10:01.001Z,10.88
2023-01-22T00:12:27.937Z,11.45
2023-01-22T00:14:54.825Z,12.25
2023-01-22T00:17:21.710Z,8.18
2023-01-22T00:19:48.508Z,11.27
2023-01-22T00:22:15.399Z,8.45
2023-01-22T00:24:42.238Z,8.07
2023-01-22T00:27:09.317Z,8.88
2023-01-22T00:29:36.132Z,10.55
2023-01-22T00:32:03.218Z,9.05
2023-01-22T00:34:30.117Z,10.05
2023-01-22T00:36:57.921Z,10.95
2023-01-22T00:39:24.817Z,11.10
2023-01-22T00:41:52.011Z,11.23
2023-01-22T00:44:18.928Z,7.40
2023-01-22T00:46:45.761Z,7.22
2023-01-22T00:49:12.788Z,9.50
2023-01-22T00:51:39.790Z,8.10
2023-01-22T00:54:09.032Z,8.82
2023-01-22T00:56:35.824Z,9.50
2023-01-22T00:59:09.966Z,9.88
2023-01-22T01:01:38.495Z,10.10
2023-01-22T01:04:05.754Z,10.60
2023-01-22T01:06:32.971Z,10.20
2023-01-22T01:08:59.805Z,10.30
2023-01-22T01:11:26.679Z,9.82
2023-01-22T01:13:54.119Z,8.02
2023-01-22T01:16:29.182Z,9.80
2023-01-22T01:19:09.991Z,10.02
2023-01-22T01:21:36.870Z,9.57
2023-01-22T01:24:03.923Z,10.20
2023-01-22T01:26:30.813Z,9.40
2023-01-22T01:28:57.627Z,10.38
2023-01-22T01:31:26.008Z,7.55
2023-01-22T01:33:53.211Z,9.20
2023-01-22T01:36:46.184Z,8.98
2023-01-22T01:39:10.914Z,10.65
2023-01-22T01:41:37.753Z,7.18
2023-01-22T01:44:12.075Z,9.70
2023-01-22T01:46:47.823Z,9.38
2023-01-22T01:49:36.561Z,8.50
2023-01-22T01:52:07.924Z,10.05
2023-01-22T01:54:36.575Z,9.30
2023-01-22T01:57:11.085Z,9.30
2023-01-22T01:59:39.237Z,8.75
2023-01-22T02:02:06.591Z,9.63
2023-01-22T02:04:33.536Z,9.38
2023-01-22T02:07:00.588Z,9.15
2023-01-22T02:09:29.448Z,9.00
2023-01-22T02:11:56.239Z,6.68
2023-01-22T02:14:32.044Z,9.52
2023-01-22T02:17:16.080Z,9.48
2023-01-22T02:19:44.009Z,8.73
2023-01-22T02:22:22.906Z,9.18
2023-01-22T02:24:50.614Z,8.85
2023-01-22T02:27:18.665Z,8.60
2023-01-22T02:29:46.803Z,9.02
2023-01-22T02:32:14.144Z,7.38
2023-01-22T02:34:41.073Z,8.30
2023-01-22T02:37:09.786Z,8.18
2023-01-22T02:39:36.582Z,9.07
2023-01-22T02:42:08.134Z,9.48
2023-01-22T02:44:35.715Z,8.73
2023-01-22T02:47:02.572Z,9.30
2023-01-22T02:49:29.417Z,7.43
2023-01-22T02:51:56.429Z,8.55
2023-01-22T02:54:24.310Z,8.98
2023-01-22T02:56:51.084Z,8.93
2023-01-22T02:59:18.093Z,7.15
2023-01-22T03:01:45.002Z,8.98
2023-01-22T03:04:11.860Z,7.53
2023-01-22T03:06:40.648Z,8.80
2023-01-22T03:09:09.065Z,8.25
2023-01-22T03:11:38.869Z,9.35
2023-01-22T03:14:29.311Z,9.10
2023-01-22T03:17:15.422Z,8.48
2023-01-22T03:20:00.743Z,8.20
2023-01-22T03:22:28.457Z,8.68
2023-01-22T03:24:58.628Z,8.63
2023-01-22T03:27:27.533Z,8.68
2023-01-22T03:29:55.319Z,8.75
2023-01-22T03:32:23.078Z,8.52
2023-01-22T03:34:50.691Z,9.40
2023-01-22T03:37:17.735Z,8.55
2023-01-22T03:39:46.907Z,9.23
2023-01-22T03:42:25.109Z,8.82
2023-01-22T03:44:51.930Z,9.35
2023-01-22T03:47:18.740Z,7.72
2023-01-22T03:49:45.637Z,9.13
2023-01-22T03:52:12.426Z,8.30
2023-01-22T03:54:40.378Z,9.02
2023-01-22T03:57:09.128Z,8.80
2023-01-22T03:59:38.637Z,9.45
2023-01-22T04:02:05.513Z,7.70
2023-01-22T04:04:38.566Z,9.70
2023-01-22T04:07:05.406Z,10.10
2023-01-22T04:09:32.641Z,8.88
2023-01-22T04:11:59.631Z,7.53
2023-01-22T04:14:27.055Z,9.07
2023-01-22T04:16:59.721Z,10.25
2023-01-22T04:19:59.027Z,9.80
2023-01-22T04:22:43.544Z,9.35
2023-01-22T04:25:12.323Z,9.68
2023-01-22T04:27:39.097Z,10.68
2023-01-22T04:32:34.776Z,10.50
2023-01-22T04:35:15.687Z,11.23
2023-01-22T04:37:48.186Z,10.85
2023-01-22T04:40:15.469Z,7.25
2023-01-22T04:42:43.788Z,10.88
2023-01-22T04:45:11.087Z,7.85
2023-01-22T04:47:46.749Z,11.05
2023-01-22T04:50:22.712Z,9.57
2023-01-22T04:52:53.941Z,9.75
2023-01-22T04:55:21.143Z,10.20
2023-01-22T04:57:58.447Z,10.65
2023-01-22T05:00:27.092Z,10.20
2023-01-22T05:02:58.951Z,9.50
2023-01-22T05:05:27.934Z,10.18
2023-01-22T05:07:55.134Z,10.73
2023-01-22T05:10:23.478Z,10.55
2023-01-22T05:15:24.455Z,9.30
2023-01-22T05:17:53.447Z,10.40
2023-01-22T05:20:21.437Z,11.95
2023-01-22T05:22:48.947Z,9.57
2023-01-22T05:25:18.114Z,10.25
2023-01-22T05:27:45.379Z,10.57
2023-01-22T05:30:17.336Z,11.98
2023-01-22T05:32:58.323Z,10.32
2023-01-22T05:35:26.103Z,10.75
2023-01-22T05:37:52.938Z,10.63
2023-01-22T05:40:21.654Z,10.05
2023-01-22T05:42:48.451Z,10.60
2023-01-22T05:45:15.313Z,10.43
2023-01-22T05:47:56.604Z,10.30
2023-01-22T05:50:41.192Z,10.57
2023-01-22T05:53:09.782Z,11.63
2023-01-22T05:55:37.551Z,10.30
2023-01-22T05:58:06.386Z,11.70
2023-01-22T06:00:33.666Z,11.50
2023-01-22T06:03:02.969Z,10.57
2023-01-22T06:05:38.310Z,10.35
2023-01-22T06:08:07.705Z,9.75
2023-01-22T06:10:45.247Z,10.02
2023-01-22T06:13:13.430Z,10.10
2023-01-22T06:15:43.418Z,9.40
2023-01-22T06:18:36.312Z,10.70
2023-01-22T06:21:06.579Z,8.23
2023-01-22T06:23:34.022Z,10.32
2023-01-22T06:26:02.440Z,10.48
2023-01-22T06:28:30.118Z,11.60
2023-01-22T06:31:05.326Z,11.35
2023-01-22T06:33:34.511Z,10.07
2023-01-22T06:36:02.141Z,10.52
2023-01-22T06:38:29.512Z,10.50
2023-01-22T06:40:59.657Z,10.15
2023-01-22T06:43:28.254Z,9.82
2023-01-22T06:45:55.697Z,10.40
2023-01-22T06:48:38.993Z,9.27
2023-01-22T06:51:06.033Z,7.80
2023-01-22T06:53:33.180Z,10.27
2023-01-22T06:56:00.164Z,9.35
2023-01-22T06:58:29.779Z,10.23
2023-01-22T07:01:01.320Z,7.32
2023-01-22T07:03:28.178Z,9.20
2023-01-22T07:05:59.438Z,8.98
2023-01-22T07:08:27.409Z,9.13
2023-01-22T07:10:54.358Z,9.88
2023-01-22T07:13:21.818Z,7.32
2023-01-22T07:15:48.809Z,9.88
2023-01-22T07:18:16.666Z,9.82
2023-01-22T07:20:43.487Z,9.02
2023-01-22T07:23:10.445Z,10.07
2023-01-22T07:25:37.330Z,9.00
2023-01-22T07:28:06.127Z,9.40
2023-01-22T07:30:33.403Z,9.75
2023-01-22T07:33:04.112Z,9.98
2023-01-22T07:35:31.405Z,9.35
2023-01-22T07:37:59.815Z,8.38
2023-01-22T07:40:27.235Z,8.63
2023-01-22T07:42:55.280Z,9.15
2023-01-22T07:45:24.771Z,9.27
2023-01-22T07:47:57.007Z,9.38
2023-01-22T07:50:26.263Z,9.35
2023-01-22T07:52:53.545Z,8.98
2023-01-22T07:55:20.911Z,9.73
2023-01-22T07:57:47.752Z,9.52
2023-01-22T08:00:16.117Z,6.97
2023-01-22T08:02:43.227Z,9.30
2023-01-22T08:05:12.348Z,8.40
2023-01-22T08:07:39.160Z,9.25
2023-01-22T08:10:06.441Z,10.13
2023-01-22T08:12:33.313Z,8.25
2023-01-22T08:15:00.102Z,7.88
2023-01-22T08:17:26.936Z,6.93
2023-01-22T08:19:53.857Z,7.60
2023-01-22T08:22:20.822Z,8.93
2023-01-22T08:24:47.629Z,9.82
2023-01-22T08:27:14.571Z,7.28
2023-01-22T08:29:41.351Z,7.13
2023-01-22T08:32:08.202Z,8.77
2023-01-22T08:34:35.073Z,7.10
2023-01-22T08:37:01.876Z,9.43
2023-01-22T08:39:28.702Z,7.47
2023-01-22T08:41:57.481Z,8.07
2023-01-22T08:44:25.227Z,9.73
2023-01-22T08:46:52.823Z,9.95
2023-01-22T08:51:50.273Z,10.27
2023-01-22T08:54:20.140Z,10.30
2023-01-22T08:56:47.972Z,9.82
2023-01-22T08:59:15.848Z,9.93
2023-01-22T09:01:42.708Z,10.52
2023-01-22T09:04:10.783Z,11.20
2023-01-22T09:06:38.967Z,11.15
2023-01-22T09:09:06.664Z,9.57
2023-01-22T09:11:33.709Z,11.85
2023-01-22T09:14:00.538Z,11.65
2023-01-22T09:16:28.009Z,9.45
2023-01-22T09:21:21.747Z,7.65
2023-01-22T09:23:48.692Z,11.27
2023-01-22T09:26:15.770Z,9.00
2023-01-22T09:28:42.562Z,9.35
2023-01-22T09:31:13.221Z,9.20
2023-01-22T09:33:40.087Z,11.98
2023-01-22T09:36:08.739Z,10.18
2023-01-22T09:38:35.624Z,11.50
2023-01-22T09:41:10.818Z,9.90
2023-01-22T09:43:47.505Z,12.50
2023-01-22T09:46:29.253Z,8.65
2023-01-22T09:49:08.326Z,11.52
2023-01-22T09:51:36.660Z,11.57
2023-01-22T09:54:05.452Z,11.95
2023-01-22T09:56:44.224Z,11.70
2023-01-22T09:59:22.572Z,12.13
2023-01-22T10:02:00.066Z,11.70
2023-01-22T10:04:40.144Z,11.68
2023-01-22T10:07:16.177Z,12.15
2023-01-22T10:09:50.740Z,10.75
2023-01-22T10:12:17.604Z,10.88
2023-01-22T10:14:44.566Z,7.47
2023-01-22T10:17:23.815Z,7.25
2023-01-22T10:20:01.613Z,9.35
2023-01-22T10:22:28.595Z,9.43
2023-01-22T10:24:55.714Z,10.73
2023-01-22T10:27:32.575Z,9.80
2023-01-22T10:30:23.158Z,9.45
2023-01-22T10:33:01.448Z,10.25
2023-01-22T10:35:31.784Z,8.65
2023-01-22T10:37:59.819Z,8.98
2023-01-22T10:40:37.789Z,8.65
2023-01-22T10:43:17.369Z,8.52
2023-01-22T10:45:56.035Z,8.70
2023-01-22T10:48:23.378Z,8.68
2023-01-22T10:51:16.855Z,8.65
2023-01-22T10:53:51.851Z,8.27
2023-01-22T10:56:30.219Z,9.57
2023-01-22T10:58:58.313Z,9.85
2023-01-22T11:01:28.754Z,9.13
2023-01-22T11:03:55.636Z,9.23
2023-01-22T11:06:39.228Z,9.93
2023-01-22T11:09:17.478Z,10.20
2023-01-22T11:11:54.898Z,10.07
2023-01-22T11:14:33.612Z,9.43
2023-01-22T11:17:10.132Z,9.90
2023-01-22T11:19:45.107Z,10.10
2023-01-22T11:22:33.268Z,10.05
2023-01-22T11:25:00.165Z,10.30
2023-01-22T11:27:49.623Z,9.82
2023-01-22T11:30:34.946Z,9.60
2023-01-22T11:33:08.197Z,9.10
2023-01-22T11:36:00.303Z,9.25
2023-01-22T11:38:52.594Z,8.48
2023-01-22T11:41:47.460Z,8.75
2023-01-22T11:44:31.590Z,8.07
2023-01-22T11:47:19.806Z,8.77
2023-01-22T11:50:02.851Z,9.45
2023-01-22T11:52:52.744Z,9.07
2023-01-22T11:55:44.785Z,8.18
2023-01-22T11:58:41.661Z,7.53
2023-01-22T12:03:58.904Z,7.32
2023-01-22T12:07:03.717Z,9.40
2023-01-22T12:09:41.323Z,7.90
2023-01-22T12:12:28.998Z,9.82
2023-01-22T12:15:21.371Z,8.23
2023-01-22T12:18:03.291Z,8.35
2023-01-22T12:20:48.811Z,7.72
2023-01-22T12:23:25.497Z,8.38
2023-01-22T12:25:59.067Z,9.07
2023-01-22T12:28:27.872Z,9.63
2023-01-22T12:31:02.710Z,8.80
2023-01-22T12:33:34.799Z,9.05
2023-01-22T12:36:03.829Z,8.30
2023-01-22T12:38:57.449Z,9.60
2023-01-22T12:41:45.596Z,8.32
2023-01-22T12:44:43.592Z,8.82
2023-01-22T12:47:36.253Z,8.52
2023-01-22T12:50:04.870Z,8.68
2023-01-22T12:52:37.415Z,8.68
2023-01-22T12:55:44.228Z,7.97
2023-01-22T12:58:26.851Z,8.85
2023-01-22T13:01:01.073Z,9.52
2023-01-22T13:03:32.095Z,8.93
2023-01-22T13:06:01.532Z,8.85
2023-01-22T13:08:38.947Z,7.78
2023-01-22T13:11:39.411Z,8.77
2023-01-22T13:14:27.156Z,8.88
2023-01-22T13:17:03.512Z,9.18
2023-01-22T13:19:35.803Z,9.55
2023-01-22T13:22:03.618Z,8.52
2023-01-22T13:24:30.710Z,10.02
2023-01-22T13:27:00.553Z,10.00
2023-01-22T13:29:33.928Z,9.13
2023-01-22T13:32:16.931Z,8.63
2023-01-22T13:34:43.931Z,8.85
2023-01-22T13:37:24.955Z,9.52
2023-01-22T13:39:52.005Z,10.15
2023-01-22T13:42:19.086Z,10.50
2023-01-22T13:44:51.263Z,9.10
2023-01-22T13:47:29.150Z,9.45
2023-01-22T13:49:56.076Z,9.10
2023-01-22T13:52:23.643Z,8.43
2023-01-22T14:00:02.184Z,8.90
2023-01-22T14:02:34.754Z,9.25
2023-01-22T14:05:02.111Z,9.23
2023-01-22T14:07:39.525Z,10.00
2023-01-22T14:10:23.284Z,9.40
2023-01-22T14:13:10.747Z,9.68
2023-01-22T14:15:38.637Z,9.60
2023-01-22T14:18:28.739Z,9.02
2023-01-22T14:20:55.820Z,10.30
2023-01-22T14:23:22.887Z,9.73
2023-01-22T14:25:52.367Z,10.13
2023-01-22T14:28:21.476Z,9.95
2023-01-22T14:30:51.336Z,10.02
2023-01-22T14:33:25.151Z,9.93
2023-01-22T14:35:53.173Z,13.40
2023-01-22T14:38:20.270Z,13.18
2023-01-22T14:40:47.665Z,11.13
2023-01-22T14:43:14.516Z,11.82
2023-01-22T14:45:43.673Z,12.20
2023-01-22T14:48:15.677Z,11.88
2023-01-22T14:50:42.552Z,10.82
2023-01-22T14:53:10.655Z,10.85
2023-01-22T14:55:37.993Z,10.95
2023-01-22T14:58:06.088Z,9.13
2023-01-22T15:00:32.844Z,11.65
2023-01-22T15:03:00.399Z,11.88
2023-01-22T15:10:22.197Z,9.95
2023-01-22T15:12:52.273Z,10.07
2023-01-22T15:15:25.156Z,10.52
2023-01-22T15:17:53.647Z,10.15
2023-01-22T15:20:21.908Z,10.60
2023-01-22T15:22:49.793Z,10.98
2023-01-22T15:25:17.680Z,11.75
2023-01-22T15:27:44.876Z,11.07
2023-01-22T15:30:13.545Z,10.13
2023-01-22T15:32:40.710Z,13.68
2023-01-22T15:35:08.128Z,10.43
2023-01-22T15:37:35.208Z,11.10
2023-01-22T15:40:02.379Z,11.25
2023-01-22T15:42:29.217Z,9.02
2023-01-22T15:44:56.285Z,12.25
2023-01-22T15:47:23.381Z,10.38
2023-01-22T15:49:50.442Z,10.65
2023-01-22T15:52:17.511Z,8.07
2023-01-22T15:54:46.120Z,10.18
2023-01-22T15:57:13.850Z,11.70
2023-01-22T15:59:41.925Z,11.80
2023-01-22T16:02:12.316Z,12.77
2023-01-22T16:04:39.386Z,11.20
2023-01-22T16:07:06.196Z,7.75
2023-01-22T16:09:34.488Z,9.73
2023-01-22T16:12:01.347Z,11.18
2023-01-22T16:14:29.067Z,10.90
2023-01-22T16:16:55.977Z,11.80
2023-01-22T16:19:22.872Z,12.40
2023-01-22T16:21:49.645Z,10.30
2023-01-22T16:24:16.763Z,15.65
2023-01-22T16:26:43.872Z,13.50
2023-01-22T16:29:10.930Z,16.27
2023-01-22T16:31:37.917Z,16.90
2023-01-22T16:34:11.000Z,14.10
2023-01-22T16:36:38.707Z,14.20
2023-01-22T16:39:06.413Z,13.65
2023-01-22T16:41:35.106Z,13.48
2023-01-22T16:44:06.200Z,14.30
2023-01-22T16:46:34.659Z,13.32
2023-01-22T16:49:18.213Z,12.20
2023-01-22T16:51:47.832Z,12.07
2023-01-22T16:54:29.241Z,12.77
2023-01-22T16:57:01.005Z,10.88
2023-01-22T16:59:27.957Z,11.15
2023-01-22T17:01:56.574Z,12.35
2023-01-22T17:04:23.647Z,12.02
2023-01-22T17:06:58.961Z,13.25
2023-01-22T17:09:28.536Z,12.27
2023-01-22T17:11:58.362Z,11.60
2023-01-22T17:14:29.634Z,12.98
2023-01-22T17:16:57.869Z,11.13
2023-01-22T17:19:25.390Z,11.32
2023-01-22T17:21:59.127Z,11.48
2023-01-22T17:24:30.912Z,12.07
2023-01-22T17:26:58.617Z,14.85
2023-01-22T17:29:25.734Z,12.00
2023-01-22T17:31:52.748Z,12.27
2023-01-22T17:34:19.574Z,11.20
2023-01-22T17:36:46.450Z,10.82
2023-01-22T17:39:15.557Z,8.85
2023-01-22T17:41:42.927Z,11.65
2023-01-22T17:44:09.857Z,11.13
2023-01-22T17:46:37.099Z,9.55
2023-01-22T17:54:02.049Z,10.80
2023-01-22T17:56:32.125Z,11.20
2023-01-22T17:59:01.242Z,12.05
2023-01-22T18:01:30.264Z,11.60
2023-01-22T18:03:58.836Z,11.13
2023-01-22T18:06:25.879Z,10.93
2023-01-22T18:08:53.274Z,11.88
2023-01-22T18:11:23.887Z,12.85
2023-01-22T18:13:51.016Z,11.32
2023-01-22T18:16:19.208Z,9.20
2023-01-22T18:18:46.121Z,10.50
2023-01-22T18:21:16.306Z,12.05
2023-01-22T18:23:44.489Z,12.20
2023-01-22T18:26:12.551Z,12.18
2023-01-22T18:28:39.777Z,11.73
2023-01-22T18:33:37.212Z,10.63
2023-01-22T18:36:10.847Z,12.25
2023-01-22T18:38:38.295Z,11.07
2023-01-22T18:41:13.820Z,11.57
2023-01-22T18:43:41.385Z,11.35
2023-01-22T18:46:12.620Z,12.13
2023-01-22T18:48:41.508Z,11.73
2023-01-22T18:51:10.538Z,12.82
2023-01-22T18:53:39.252Z,11.98
2023-01-22T18:56:08.103Z,11.90
2023-01-22T18:58:35.578Z,12.18
2023-01-22T19:03:47.800Z,11.48
2023-01-22T19:06:18.524Z,11.00
2023-01-22T19:08:55.751Z,11.82
2023-01-22T19:11:24.240Z,13.95
2023-01-22T19:13:55.807Z,11.05
2023-01-22T19:16:23.848Z,12.00
2023-01-22T19:19:03.040Z,12.55
2023-01-22T19:21:30.676Z,11.73
2023-01-22T19:23:59.723Z,12.38
2023-01-22T19:26:31.121Z,13.10
2023-01-22T19:29:02.543Z,11.23
2023-01-22T19:31:32.540Z,13.10
2023-01-22T19:34:00.659Z,12.77
2023-01-22T19:36:30.331Z,11.45
2023-01-22T19:38:59.676Z,10.95
2023-01-22T19:41:27.059Z,12.98
2023-01-22T19:43:55.227Z,12.68
2023-01-22T19:46:22.450Z,12.90
2023-01-22T19:48:49.549Z,12.13
2023-01-22T19:51:17.296Z,11.85
2023-01-22T19:53:45.056Z,11.25
2023-01-22T19:56:24.433Z,11.65
2023-01-22T19:58:54.043Z,10.82
2023-01-22T20:01:21.620Z,11.73
2023-01-22T20:03:48.717Z,13.45
2023-01-22T20:06:18.001Z,12.98
2023-01-22T20:08:45.842Z,12.30
2023-01-22T20:13:40.780Z,11.10
2023-01-22T20:16:19.311Z,12.82
2023-01-22T20:18:46.578Z,12.75
2023-01-22T20:23:41.636Z,11.68
2023-01-22T20:26:09.965Z,12.52
2023-01-22T20:28:37.879Z,10.80
2023-01-22T20:31:06.676Z,12.45
2023-01-22T20:33:33.804Z,12.55
2023-01-22T20:36:04.302Z,11.05
2023-01-22T20:38:31.402Z,12.52
2023-01-22T20:41:04.458Z,12.75
2023-01-22T20:43:32.496Z,11.38
2023-01-22T20:46:06.900Z,13.80
2023-01-22T20:48:34.346Z,13.13
2023-01-22T20:51:01.597Z,13.43
2023-01-22T20:53:29.251Z,13.52
2023-01-22T20:56:05.312Z,12.10
2023-01-22T20:58:33.365Z,12.88
2023-01-22T21:01:06.038Z,12.52
2023-01-22T21:03:33.749Z,11.93
2023-01-22T21:06:05.597Z,11.90
2023-01-22T21:08:32.658Z,12.35
2023-01-22T21:11:04.964Z,11.73
2023-01-22T21:13:32.534Z,12.65
2023-01-22T21:16:10.502Z,11.18
2023-01-22T21:18:41.337Z,10.88
2023-01-22T21:21:10.630Z,11.93
2023-01-22T21:23:38.566Z,11.45
2023-01-22T21:26:08.406Z,12.50
2023-01-22T21:28:35.752Z,12.10
2023-01-22T21:31:07.998Z,11.32
2023-01-22T21:33:35.345Z,13.05
2023-01-22T21:36:02.288Z,13.43
2023-01-22T21:38:29.547Z,12.40
2023-01-22T21:41:08.198Z,13.30
2023-01-22T21:43:54.894Z,12.98
2023-01-22T21:46:21.972Z,10.60
2023-01-22T21:48:49.496Z,12.93
2023-01-22T21:53:44.876Z,11.73
2023-01-22T21:56:11.718Z,12.13
2023-01-22T21:58:42.221Z,9.25
2023-01-22T22:01:09.647Z,12.30
2023-01-22T22:06:03.651Z,10.70
2023-01-22T22:08:30.569Z,9.18
2023-01-22T22:10:57.528Z,8.70
2023-01-22T22:13:24.399Z,8.52
2023-01-22T22:15:51.206Z,8.32
2023-01-22T22:18:17.952Z,12.38
2023-01-22T22:20:44.859Z,11.20
2023-01-22T22:23:11.692Z,11.15
2023-01-22T22:25:38.483Z,11.15
2023-01-22T22:28:05.269Z,11.20
2023-01-22T22:30:33.998Z,8.20
2023-01-22T22:33:00.943Z,10.10
2023-01-22T22:35:27.731Z,8.95
2023-01-22T22:37:54.657Z,10.18
2023-01-22T22:40:21.553Z,8.82
2023-01-22T22:42:48.410Z,11.73
2023-01-22T22:45:15.195Z,11.70
2023-01-22T22:47:41.960Z,8.88
2023-01-22T22:50:10.286Z,10.02
2023-01-22T22:52:37.310Z,12.25
2023-01-22T22:55:04.886Z,11.70
2023-01-22T22:57:31.653Z,12.52
2023-01-22T22:59:58.465Z,12.45
2023-01-22T23:02:25.260Z,9.43
2023-01-22T23:04:52.048Z,8.10
2023-01-22T23:07:18.819Z,12.57
2023-01-22T23:09:45.643Z,13.30
2023-01-22T23:12:12.437Z,9.07
2023-01-22T23:14:39.183Z,12.75
2023-01-22T23:17:06.679Z,8.80
2023-01-22T23:19:33.491Z,11.68
2023-01-22T23:22:01.142Z,9.10
2023-01-22T23:24:28.483Z,11.82
2023-01-22T23:26:55.399Z,11.38
2023-01-22T23:29:24.139Z,8.82
2023-01-22T23:31:51.542Z,11.55
2023-01-22T23:34:20.575Z,10.75
2023-01-22T23:36:48.744Z,12.07
2023-01-22T23:39:18.223Z,12.75
2023-01-22T23:41:45.127Z,11.98
2023-01-22T23:44:12.209Z,11.43
2023-01-22T23:46:39.155Z,8.95
2023-01-22T23:49:06.080Z,9.38
2023-01-22T23:51:33.240Z,11.23
2023-01-22T23:54:00.093Z,12.07
2023-01-22T23:56:32.042Z,8.57
2023-01-22T23:58:59.418Z,11.27
